Time;durP1;ratioP1;P1;durP2;ratioP2;P2;SDS_P1;SDS_P2;PMS_P1;PMS_P2;Temp;Humidity;BMP_temperature;BMP_pressure;BME280_temperature;BME280_humidity;BME280_pressure;Samples;Min_cycle;Max_cycle;Signal;HPM_P1;HPM_P2
2023/07/24 00:00:22;;;;;;;4.45;2.63;;;19.80;99.90;;;;;;4990655;28;20083;-84
2023/07/24 00:02:47;;;;;;;3.55;2.28;;;19.80;99.90;;;;;;4991445;28;20483;-84
2023/07/24 00:05:13;;;;;;;7.80;3.22;;;19.70;99.90;;;;;;4991492;28;20027;-83
2023/07/24 00:07:39;;;;;;;5.57;2.58;;;19.70;99.90;;;;;;4990952;28;20539;-84
2023/07/24 00:10:05;;;;;;;5.07;2.72;;;19.60;99.90;;;;;;4990635;28;20897;-85
2023/07/24 00:12:30;;;;;;;4.90;2.85;;;19.60;99.90;;;;;;4988804;28;20121;-85
2023/07/24 00:14:56;;;;;;;4.72;2.80;;;19.60;99.90;;;;;;4991346;28;20113;-84
2023/07/24 00:17:22;;;;;;;4.65;2.50;;;19.50;99.90;;;;;;4990651;28;20566;-85
2023/07/24 00:19:49;;;;;;;4.35;2.35;;;19.50;99.90;;;;;;4990477;28;20175;-83
2023/07/24 00:22:14;;;;;;;5.40;2.75;;;19.50;99.90;;;;;;4991286;28;20027;-82
2023/07/24 00:24:40;;;;;;;5.80;2.90;;;19.50;99.90;;;;;;4991015;28;20027;-83
2023/07/24 00:27:06;;;;;;;6.25;2.85;;;19.40;99.90;;;;;;4991677;28;20037;-85
2023/07/24 00:29:31;;;;;;;6.40;3.00;;;19.40;99.90;;;;;;4991628;28;20110;-85
2023/07/24 00:31:57;;;;;;;4.68;2.78;;;19.40;99.90;;;;;;4991595;28;20042;-85
2023/07/24 00:34:23;;;;;;;4.03;2.70;;;19.40;99.90;;;;;;4990650;28;20036;-85
2023/07/24 00:36:48;;;;;;;6.60;2.72;;;19.40;99.90;;;;;;4991995;28;20445;-85
2023/07/24 00:39:14;;;;;;;5.20;3.13;;;19.40;99.90;;;;;;4991711;28;20030;-86
2023/07/24 00:41:40;;;;;;;5.22;2.92;;;19.40;99.90;;;;;;4990671;28;20158;-85
2023/07/24 00:44:06;;;;;;;5.15;2.80;;;19.40;99.90;;;;;;4991975;28;20443;-84
2023/07/24 00:46:33;;;;;;;10.13;3.22;;;19.40;99.90;;;;;;4991428;28;20027;-86
2023/07/24 00:49:00;;;;;;;7.60;3.00;;;19.40;99.90;;;;;;4991583;28;20102;-85
2023/07/24 00:51:27;;;;;;;4.78;2.97;;;19.40;99.90;;;;;;4990882;28;20050;-86
2023/07/24 00:53:55;;;;;;;4.68;2.78;;;19.30;99.90;;;;;;4991844;28;20073;-86
2023/07/24 00:56:21;;;;;;;5.35;2.72;;;19.30;99.90;;;;;;4991938;28;20060;-86
2023/07/24 00:58:48;;;;;;;6.95;3.03;;;19.30;99.90;;;;;;4990427;28;20079;-85
2023/07/24 01:01:16;;;;;;;8.00;3.03;;;19.20;99.90;;;;;;4991389;28;20490;-85
2023/07/24 01:03:43;;;;;;;5.15;3.22;;;19.20;99.90;;;;;;4990969;28;20038;-84
2023/07/24 01:06:09;;;;;;;8.90;3.30;;;19.20;99.90;;;;;;4990551;28;20075;-86
2023/07/24 01:08:36;;;;;;;5.22;3.28;;;19.20;99.90;;;;;;4989315;28;20115;-85
2023/07/24 01:11:17;;;;;;;8.68;3.67;;;19.20;99.90;;;;;;4990437;28;20033;-86
2023/07/24 01:14:03;;;;;;;8.00;3.10;;;19.30;99.90;;;;;;4989890;28;20049;-83
2023/07/24 01:16:36;;;;;;;7.13;3.60;;;19.30;99.90;;;;;;4989687;28;20038;-83
2023/07/24 01:19:05;;;;;;;5.50;4.10;;;19.30;99.90;;;;;;4988077;28;20384;-83
2023/07/24 01:21:44;;;;;;;7.70;3.85;;;19.30;99.90;;;;;;4989799;28;20515;-83
2023/07/24 01:24:10;;;;;;;7.82;3.78;;;19.30;99.90;;;;;;4990743;28;20139;-86
2023/07/24 01:26:36;;;;;;;10.45;3.85;;;19.30;99.90;;;;;;4990758;28;20657;-84
2023/07/24 01:29:01;;;;;;;7.07;4.18;;;19.30;99.90;;;;;;4990772;28;20038;-85
2023/07/24 01:31:27;;;;;;;5.35;3.85;;;19.30;99.90;;;;;;4989654;28;20029;-86
2023/07/24 01:33:53;;;;;;;6.95;4.38;;;19.30;99.90;;;;;;4990398;28;20078;-85
2023/07/24 01:36:19;;;;;;;8.45;4.00;;;19.30;99.90;;;;;;4989190;28;20046;-85
2023/07/24 01:38:47;;;;;;;5.88;3.78;;;19.40;99.90;;;;;;4990755;28;20099;-85
2023/07/24 01:41:12;;;;;;;6.35;3.70;;;19.40;99.90;;;;;;4988885;28;20051;-85
2023/07/24 01:43:38;;;;;;;6.43;3.78;;;19.30;99.90;;;;;;4990389;28;20022;-84
2023/07/24 01:46:04;;;;;;;4.93;3.30;;;19.30;99.90;;;;;;4989275;28;20034;-85
2023/07/24 01:48:29;;;;;;;7.35;3.38;;;19.30;99.90;;;;;;4990399;28;20489;-85
2023/07/24 01:50:55;;;;;;;5.43;3.70;;;19.30;99.90;;;;;;4989187;28;20410;-85
2023/07/24 01:53:21;;;;;;;4.10;2.78;;;19.30;99.90;;;;;;4989851;28;20453;-84
2023/07/24 01:55:46;;;;;;;7.13;3.30;;;19.20;99.90;;;;;;4987872;28;20103;-84
2023/07/24 01:58:12;;;;;;;6.20;2.85;;;19.20;99.90;;;;;;4988007;28;20388;-85
2023/07/24 02:00:37;;;;;;;5.78;3.05;;;19.20;99.90;;;;;;4988546;28;20570;-85
2023/07/24 02:03:03;;;;;;;7.60;3.53;;;19.10;99.90;;;;;;4989183;28;20038;-83
2023/07/24 02:05:29;;;;;;;6.47;3.65;;;19.10;99.90;;;;;;4988776;28;20026;-84
2023/07/24 02:07:55;;;;;;;7.28;3.50;;;19.20;99.90;;;;;;4988905;28;20040;-84
2023/07/24 02:10:20;;;;;;;5.35;3.47;;;19.20;99.90;;;;;;4988385;28;20030;-84
2023/07/24 02:12:46;;;;;;;4.50;3.15;;;19.20;99.90;;;;;;4988543;28;20056;-82
2023/07/24 02:15:12;;;;;;;4.82;3.00;;;19.20;99.90;;;;;;4989034;28;20113;-84
2023/07/24 02:17:38;;;;;;;4.97;3.22;;;19.20;99.90;;;;;;4989010;28;20030;-85
2023/07/24 02:20:05;;;;;;;6.28;3.80;;;19.30;99.90;;;;;;4989521;28;20223;-85
2023/07/24 02:22:30;;;;;;;7.07;3.72;;;19.30;99.90;;;;;;4986488;28;20022;-85
2023/07/24 02:24:56;;;;;;;5.80;3.22;;;19.30;99.90;;;;;;4988044;28;20037;-83
2023/07/24 02:27:34;;;;;;;6.65;3.00;;;19.30;99.90;;;;;;4989837;28;20105;-84
2023/07/24 02:30:00;;;;;;;6.18;3.65;;;19.40;99.90;;;;;;4987475;28;20451;-83
2023/07/24 02:32:26;;;;;;;6.07;3.88;;;19.30;99.90;;;;;;4988901;28;20035;-85
2023/07/24 02:34:52;;;;;;;4.93;3.30;;;19.40;99.90;;;;;;4988522;28;20033;-87
2023/07/24 02:37:18;;;;;;;7.22;3.80;;;19.40;99.90;;;;;;4990163;28;20062;-84
2023/07/24 02:39:44;;;;;;;7.78;4.18;;;19.40;99.90;;;;;;4990121;28;20127;-85
2023/07/24 02:42:10;;;;;;;6.03;3.70;;;19.40;99.90;;;;;;4988840;28;20054;-86
2023/07/24 02:44:36;;;;;;;7.93;3.70;;;19.40;99.90;;;;;;4989888;28;20026;-85
2023/07/24 02:47:02;;;;;;;6.95;3.92;;;19.40;99.90;;;;;;4988716;28;20030;-86
2023/07/24 02:49:29;;;;;;;5.55;3.10;;;19.30;99.90;;;;;;4989509;28;20033;-86
2023/07/24 02:51:55;;;;;;;4.72;3.42;;;19.30;99.90;;;;;;4986958;28;20022;-85
2023/07/24 02:54:21;;;;;;;8.85;3.72;;;19.20;99.90;;;;;;4990323;28;20031;-85
2023/07/24 02:56:46;;;;;;;9.60;3.67;;;19.20;99.90;;;;;;4988733;28;20026;-84
2023/07/24 02:59:12;;;;;;;8.98;3.95;;;19.20;99.90;;;;;;4988778;28;20030;-84
2023/07/24 03:01:37;;;;;;;6.72;3.92;;;19.20;99.90;;;;;;4989096;28;20491;-86
2023/07/24 03:04:05;;;;;;;7.72;3.88;;;19.10;99.90;;;;;;4989657;28;20513;-86
2023/07/24 03:06:31;;;;;;;6.68;3.60;;;19.20;99.90;;;;;;4989427;28;20113;-86
2023/07/24 03:08:57;;;;;;;4.82;3.30;;;19.20;99.90;;;;;;4988277;28;20471;-85
2023/07/24 03:11:22;;;;;;;6.78;3.72;;;19.20;99.90;;;;;;4989365;28;20034;-86
2023/07/24 03:13:48;;;;;;;4.55;3.55;;;19.30;99.90;;;;;;4988505;28;20062;-86
2023/07/24 03:16:13;;;;;;;6.65;3.63;;;19.30;99.90;;;;;;4990576;28;20102;-85
2023/07/24 03:18:39;;;;;;;5.28;3.42;;;19.30;99.90;;;;;;4989840;28;20549;-84
2023/07/24 03:21:05;;;;;;;7.07;3.95;;;19.30;99.90;;;;;;4988877;28;20030;-83
2023/07/24 03:23:31;;;;;;;5.88;3.40;;;19.40;99.90;;;;;;4987850;28;20031;-83
2023/07/24 03:25:56;;;;;;;5.10;3.80;;;19.40;99.90;;;;;;4987028;28;20034;-83
2023/07/24 03:28:22;;;;;;;5.88;3.78;;;19.40;99.90;;;;;;4987355;28;20057;-84
2023/07/24 03:30:47;;;;;;;9.00;4.00;;;19.50;99.90;;;;;;4986063;28;20022;-84
2023/07/24 03:33:13;;;;;;;10.63;4.03;;;19.40;99.90;;;;;;4987874;28;20047;-85
2023/07/24 03:35:39;;;;;;;6.32;3.72;;;19.40;99.90;;;;;;4986780;28;20030;-84
2023/07/24 03:38:05;;;;;;;7.75;3.97;;;19.40;99.90;;;;;;4988906;28;20514;-85
2023/07/24 03:40:31;;;;;;;12.60;3.95;;;19.40;99.90;;;;;;4986859;28;20122;-85
2023/07/24 03:42:56;;;;;;;10.43;4.22;;;19.40;99.90;;;;;;4989558;28;20041;-85
2023/07/24 03:45:22;;;;;;;5.80;3.55;;;19.50;99.90;;;;;;4988593;28;20105;-85
2023/07/24 03:47:48;;;;;;;9.25;3.67;;;19.50;99.90;;;;;;4990864;28;20125;-85
2023/07/24 03:50:13;;;;;;;6.88;4.03;;;19.50;99.90;;;;;;4990587;28;20037;-84
2023/07/24 03:52:39;;;;;;;9.55;4.25;;;19.50;99.90;;;;;;4991740;28;20034;-85
2023/07/24 03:55:05;;;;;;;9.88;4.20;;;19.60;99.90;;;;;;4991784;28;20027;-85
2023/07/24 03:57:31;;;;;;;5.00;3.72;;;19.60;99.90;;;;;;4991231;28;20056;-85
2023/07/24 03:59:56;;;;;;;6.30;4.05;;;19.70;99.90;;;;;;4990715;28;20026;-84
2023/07/24 04:02:23;;;;;;;5.72;3.33;;;19.90;99.90;;;;;;4991310;28;20038;-83
2023/07/24 04:04:48;;;;;;;5.38;3.92;;;20.00;99.90;;;;;;4990607;28;20457;-84
2023/07/24 04:07:14;;;;;;;5.57;3.70;;;20.20;99.90;;;;;;4991060;28;20129;-84
2023/07/24 04:09:40;;;;;;;5.18;3.60;;;20.50;99.90;;;;;;4990977;28;20030;-83
2023/07/24 04:12:05;;;;;;;5.45;3.53;;;20.70;99.90;;;;;;4989791;28;20448;-82
2023/07/24 04:14:31;;;;;;;7.13;2.92;;;20.90;99.90;;;;;;4989802;28;20483;-82
2023/07/24 04:16:57;;;;;;;4.97;3.33;;;21.20;99.90;;;;;;4990810;28;20034;-81
2023/07/24 04:19:23;;;;;;;6.30;3.47;;;21.40;99.90;;;;;;4989746;28;20030;-82
2023/07/24 04:21:48;;;;;;;6.47;3.47;;;21.60;99.90;;;;;;4990586;28;20027;-82
2023/07/24 04:24:14;;;;;;;6.22;3.25;;;21.70;99.90;;;;;;4990446;28;20121;-83
2023/07/24 04:26:40;;;;;;;5.90;4.03;;;21.90;99.90;;;;;;4991233;28;20065;-83
2023/07/24 04:29:06;;;;;;;5.80;3.72;;;22.00;99.90;;;;;;4990014;28;20401;-84
2023/07/24 04:31:32;;;;;;;9.65;4.65;;;22.10;99.90;;;;;;4989995;28;20084;-83
2023/07/24 04:33:57;;;;;;;6.75;3.53;;;22.30;99.90;;;;;;4990587;28;20039;-83
2023/07/24 04:36:23;;;;;;;5.75;3.67;;;22.40;99.90;;;;;;4989890;28;20410;-82
2023/07/24 04:38:49;;;;;;;6.68;3.22;;;22.40;99.90;;;;;;4990592;28;20826;-81
2023/07/24 04:41:14;;;;;;;5.60;3.60;;;22.40;99.90;;;;;;4988843;28;20384;-82
2023/07/24 04:43:40;;;;;;;8.20;3.75;;;22.50;99.90;;;;;;4990750;28;20368;-84
2023/07/24 04:46:06;;;;;;;7.70;3.47;;;22.50;99.90;;;;;;4990313;28;20128;-82
2023/07/24 04:48:31;;;;;;;7.80;3.35;;;22.60;99.90;;;;;;4989678;28;20022;-83
2023/07/24 04:50:57;;;;;;;7.35;3.33;;;22.60;99.90;;;;;;4989558;28;20078;-83
2023/07/24 04:53:23;;;;;;;9.57;3.83;;;22.60;99.90;;;;;;4990446;28;20095;-83
2023/07/24 04:55:49;;;;;;;6.18;3.90;;;22.70;99.90;;;;;;4989366;28;20039;-84
2023/07/24 04:58:15;;;;;;;6.10;3.28;;;22.70;99.90;;;;;;4989646;28;20111;-83
2023/07/24 05:00:40;;;;;;;17.45;3.90;;;22.80;99.90;;;;;;4990504;28;20031;-84
2023/07/24 05:03:11;;;;;;;7.80;3.72;;;22.90;99.90;;;;;;4990208;28;20058;-84
2023/07/24 05:05:39;;;;;;;7.60;3.55;;;22.90;99.90;;;;;;4990276;28;20019;-84
2023/07/24 05:08:05;;;;;;;5.35;3.15;;;23.00;99.90;;;;;;4988081;28;20451;-83
2023/07/24 05:10:40;;;;;;;4.75;3.60;;;23.00;99.90;;;;;;4989109;28;20022;-83
2023/07/24 05:13:05;;;;;;;6.03;3.63;;;23.10;99.90;;;;;;4988180;28;20525;-83
2023/07/24 05:15:31;;;;;;;7.32;3.63;;;23.20;99.90;;;;;;4988689;28;20030;-84
2023/07/24 05:17:57;;;;;;;5.43;3.75;;;23.20;99.90;;;;;;4989406;28;20038;-84
2023/07/24 05:20:22;;;;;;;9.98;4.05;;;23.30;99.90;;;;;;4989645;28;20448;-84
2023/07/24 05:22:49;;;;;;;7.28;4.88;;;23.60;99.90;;;;;;4989002;28;20033;-84
2023/07/24 05:25:15;;;;;;;4.10;3.20;;;23.70;99.90;;;;;;4989448;28;20075;-84
2023/07/24 05:27:41;;;;;;;8.30;3.70;;;23.90;99.90;;;;;;4990258;28;20039;-84
2023/07/24 05:30:07;;;;;;;7.65;4.00;;;24.00;99.90;;;;;;4990214;28;20402;-84
2023/07/24 05:32:32;;;;;;;5.82;3.35;;;24.10;99.90;;;;;;4988617;28;20038;-84
2023/07/24 05:34:58;;;;;;;5.00;3.80;;;24.10;99.90;;;;;;4990470;28;20487;-84
2023/07/24 05:37:24;;;;;;;4.65;3.53;;;24.00;99.90;;;;;;4987275;28;20038;-82
2023/07/24 05:39:49;;;;;;;8.65;3.60;;;24.10;99.90;;;;;;4989623;28;20033;-84
2023/07/24 05:42:15;;;;;;;6.70;4.25;;;24.10;99.90;;;;;;4987095;28;20538;-84
2023/07/24 05:44:40;;;;;;;6.13;3.60;;;24.20;99.90;;;;;;4987244;28;20518;-83
2023/07/24 05:47:06;;;;;;;4.03;3.17;;;24.30;99.90;;;;;;4987775;28;20038;-83
2023/07/24 05:49:32;;;;;;;5.70;3.70;;;24.50;99.90;;;;;;4986968;28;20035;-82
2023/07/24 05:51:57;;;;;;;13.15;3.45;;;24.50;99.90;;;;;;4987933;28;20376;-84
2023/07/24 05:54:23;;;;;;;5.93;3.22;;;24.60;99.90;;;;;;4988027;28;20535;-84
2023/07/24 05:56:49;;;;;;;8.65;3.83;;;24.80;99.90;;;;;;4987870;28;20027;-83
2023/07/24 05:59:14;;;;;;;5.75;4.00;;;25.10;99.90;;;;;;4987990;28;20031;-84
2023/07/24 06:01:40;;;;;;;6.55;3.42;;;25.70;99.90;;;;;;4989325;28;20083;-85
2023/07/24 06:04:07;;;;;;;5.20;3.58;;;26.40;99.90;;;;;;4988190;28;20038;-84
2023/07/24 06:06:33;;;;;;;8.40;3.97;;;27.20;99.70;;;;;;4989186;28;20025;-84
2023/07/24 06:08:58;;;;;;;6.43;3.67;;;28.30;95.20;;;;;;4987830;28;20035;-82
2023/07/24 06:11:26;;;;;;;5.57;3.63;;;29.20;91.60;;;;;;4985962;28;20075;-83
2023/07/24 06:13:52;;;;;;;5.72;3.63;;;29.70;87.20;;;;;;4988363;28;20034;-85
2023/07/24 06:16:18;;;;;;;5.68;3.33;;;30.50;81.90;;;;;;4988873;28;20046;-84
2023/07/24 06:18:43;;;;;;;8.75;4.50;;;31.20;76.40;;;;;;4988216;28;20057;-85
2023/07/24 06:21:09;;;;;;;10.32;3.58;;;32.00;70.80;;;;;;4989375;28;20053;-83
2023/07/24 06:23:35;;;;;;;7.05;3.58;;;32.70;66.90;;;;;;4988783;28;20040;-82
2023/07/24 06:26:00;;;;;;;5.35;3.30;;;33.30;63.80;;;;;;4989313;28;20092;-81
2023/07/24 06:28:26;;;;;;;6.38;3.40;;;33.70;60.70;;;;;;4988867;28;20091;-82
2023/07/24 06:30:53;;;;;;;4.47;3.50;;;34.10;59.20;;;;;;4988851;28;20050;-84
2023/07/24 06:33:21;;;;;;;8.77;3.80;;;34.20;58.20;;;;;;4988750;28;20572;-84
2023/07/24 06:35:48;;;;;;;7.00;3.55;;;34.40;57.60;;;;;;4987691;28;20075;-85
2023/07/24 06:38:14;;;;;;;3.92;2.95;;;34.70;56.10;;;;;;4987702;28;20033;-85
2023/07/24 06:40:40;;;;;;;9.32;3.50;;;35.00;55.10;;;;;;4987342;28;20072;-84
2023/07/24 06:43:05;;;;;;;7.65;4.05;;;35.40;53.70;;;;;;4987769;28;20079;-84
2023/07/24 06:45:31;;;;;;;15.80;5.63;;;35.80;52.70;;;;;;4987831;28;20031;-84
2023/07/24 06:47:57;;;;;;;6.82;3.85;;;35.90;52.50;;;;;;4987604;28;20041;-84
2023/07/24 06:50:22;;;;;;;5.07;3.42;;;35.80;52.10;;;;;;4987397;28;20173;-83
2023/07/24 06:52:50;;;;;;;4.28;3.13;;;36.00;51.20;;;;;;4988789;28;20034;-84
2023/07/24 06:55:16;;;;;;;6.55;3.38;;;35.80;51.10;;;;;;4988488;28;20058;-84
2023/07/24 06:57:42;;;;;;;8.88;3.85;;;35.70;51.90;;;;;;4988488;28;20062;-84
2023/07/24 07:00:11;;;;;;;4.47;3.40;;;35.90;51.50;;;;;;4986812;28;20042;-83
2023/07/24 07:02:37;;;;;;;6.22;4.30;;;36.10;51.80;;;;;;4986835;28;20030;-80
2023/07/24 07:05:03;;;;;;;11.40;4.70;;;36.20;50.60;;;;;;4987593;28;20049;-83
2023/07/24 07:07:29;;;;;;;4.97;3.65;;;36.20;50.50;;;;;;4987330;28;20490;-83
2023/07/24 07:09:54;;;;;;;7.32;3.47;;;36.40;50.10;;;;;;4987859;28;20037;-84
2023/07/24 07:12:20;;;;;;;7.20;3.47;;;36.10;50.70;;;;;;4986569;28;20037;-83
2023/07/24 07:14:46;;;;;;;9.25;3.92;;;36.20;50.40;;;;;;4988025;28;20613;-83
2023/07/24 07:17:11;;;;;;;4.80;3.30;;;35.90;51.60;;;;;;4986960;28;20666;-83
2023/07/24 07:19:37;;;;;;;6.85;3.45;;;36.20;50.90;;;;;;4987070;28;20494;-84
2023/07/24 07:22:03;;;;;;;4.70;3.45;;;36.00;51.20;;;;;;4990493;28;20566;-85
2023/07/24 07:24:28;;;;;;;7.85;4.10;;;35.60;51.90;;;;;;4991479;28;20199;-84
2023/07/24 07:26:54;;;;;;;6.75;3.65;;;35.80;52.10;;;;;;4990757;28;20068;-84
2023/07/24 07:29:20;;;;;;;5.32;4.30;;;35.90;50.80;;;;;;4989924;28;20932;-84
2023/07/24 07:31:45;;;;;;;4.85;3.45;;;35.50;51.90;;;;;;4989489;28;20023;-84
2023/07/24 07:34:11;;;;;;;4.20;3.35;;;35.40;52.80;;;;;;4989431;28;20026;-84
2023/07/24 07:36:37;;;;;;;7.70;4.25;;;35.50;52.40;;;;;;4991273;28;20060;-83
2023/07/24 07:39:03;;;;;;;4.97;3.25;;;35.70;52.60;;;;;;4990526;28;20034;-83
2023/07/24 07:41:28;;;;;;;5.97;3.35;;;35.60;53.00;;;;;;4989651;28;20054;-83
2023/07/24 07:43:54;;;;;;;5.65;3.97;;;35.70;53.20;;;;;;4989519;28;20088;-83
2023/07/24 07:46:20;;;;;;;6.78;4.35;;;36.00;52.10;;;;;;4989686;28;20030;-83
2023/07/24 07:48:49;;;;;;;6.25;4.18;;;36.40;51.20;;;;;;4990610;28;20041;-84
2023/07/24 07:51:15;;;;;;;11.18;4.13;;;36.50;51.00;;;;;;4990357;28;20049;-83
2023/07/24 07:53:40;;;;;;;12.07;5.00;;;36.60;51.40;;;;;;4989045;28;20475;-83
2023/07/24 07:56:06;;;;;;;5.35;4.38;;;36.90;50.00;;;;;;4990127;28;20034;-83
2023/07/24 07:58:32;;;;;;;15.48;4.90;;;36.50;50.60;;;;;;4990519;28;20070;-84
2023/07/24 08:00:58;;;;;;;5.25;4.55;;;36.50;50.50;;;;;;4989315;28;20057;-84
2023/07/24 08:03:23;;;;;;;5.93;4.90;;;36.30;51.30;;;;;;4989380;28;20038;-82
2023/07/24 08:05:49;;;;;;;7.47;4.32;;;36.30;52.40;;;;;;4989102;28;20029;-83
2023/07/24 08:08:15;;;;;;;7.55;4.65;;;36.50;51.80;;;;;;4988897;28;20026;-83
2023/07/24 08:10:40;;;;;;;5.75;4.88;;;36.60;51.70;;;;;;4989050;28;20491;-84
2023/07/24 08:13:09;;;;;;;7.30;4.43;;;36.70;51.20;;;;;;4990086;28;20111;-82
2023/07/24 08:15:36;;;;;;;15.30;5.28;;;36.80;51.70;;;;;;4988955;28;20030;-83
2023/07/24 08:18:02;;;;;;;10.18;4.32;;;37.10;50.50;;;;;;4988906;28;20491;-82
2023/07/24 08:20:28;;;;;;;6.50;5.07;;;37.00;50.10;;;;;;4990141;28;20066;-83
2023/07/24 08:22:54;;;;;;;6.28;4.65;;;37.20;50.30;;;;;;4988716;28;20046;-83
2023/07/24 08:25:19;;;;;;;10.48;5.57;;;37.20;50.50;;;;;;4990047;28;20030;-83
2023/07/24 08:27:45;;;;;;;8.82;5.90;;;37.30;50.10;;;;;;4989146;28;20776;-81
2023/07/24 08:30:11;;;;;;;11.45;5.85;;;37.30;49.20;;;;;;4989792;28;20026;-83
2023/07/24 08:32:37;;;;;;;8.40;5.50;;;36.70;50.50;;;;;;4988171;28;20038;-84
2023/07/24 08:35:03;;;;;;;8.82;5.32;;;36.50;51.20;;;;;;4988266;28;20022;-83
2023/07/24 08:37:28;;;;;;;11.75;5.93;;;36.70;51.60;;;;;;4988320;28;20027;-83
2023/07/24 08:39:54;;;;;;;7.65;5.50;;;36.70;51.80;;;;;;4989300;28;20403;-81
2023/07/24 08:42:20;;;;;;;10.98;5.90;;;36.90;51.50;;;;;;4989584;28;20034;-83
2023/07/24 08:44:45;;;;;;;8.77;5.85;;;37.30;50.80;;;;;;4989573;28;20029;-84
2023/07/24 08:47:12;;;;;;;12.15;5.88;;;37.70;49.80;;;;;;4988440;28;20026;-82
2023/07/24 08:49:42;;;;;;;7.05;5.88;;;37.80;48.60;;;;;;4988749;28;20049;-83
2023/07/24 08:52:08;;;;;;;11.15;6.15;;;37.50;48.60;;;;;;4989833;28;20041;-82
2023/07/24 08:54:36;;;;;;;6.72;5.63;;;37.00;49.20;;;;;;4988509;28;20030;-83
2023/07/24 08:57:02;;;;;;;10.82;6.03;;;36.70;50.60;;;;;;4988785;28;20113;-83
2023/07/24 08:59:29;;;;;;;7.75;6.10;;;36.50;51.00;;;;;;4988156;28;20436;-84
2023/07/24 09:01:55;;;;;;;8.43;5.47;;;36.60;51.90;;;;;;4988299;28;20400;-82
2023/07/24 09:04:21;;;;;;;14.35;5.65;;;37.00;50.90;;;;;;4988499;28;20121;-84
2023/07/24 09:06:48;;;;;;;6.50;5.32;;;37.30;50.60;;;;;;4988135;28;20122;-83
2023/07/24 09:09:14;;;;;;;9.18;5.68;;;37.40;50.30;;;;;;4989168;28;20056;-83
2023/07/24 09:11:51;;;;;;;8.18;5.65;;;37.90;49.90;;;;;;4987105;28;20068;-82
2023/07/24 09:14:28;;;;;;;8.77;5.85;;;37.90;48.50;;;;;;4988792;28;20015;-83
2023/07/24 09:17:08;;;;;;;9.52;5.80;;;37.80;48.90;;;;;;4988766;28;20037;-84
2023/07/24 09:19:34;;;;;;;8.98;5.85;;;38.00;48.30;;;;;;4987816;28;20035;-84
2023/07/24 09:22:15;;;;;;;8.25;5.75;;;38.10;48.50;;;;;;4987214;28;20453;-82
2023/07/24 09:24:55;;;;;;;9.32;5.88;;;38.40;47.30;;;;;;4987395;28;20030;-84
2023/07/24 09:27:26;;;;;;;8.90;6.32;;;38.30;47.80;;;;;;4988723;28;20394;-83
2023/07/24 09:29:51;;;;;;;11.63;5.32;;;38.10;48.20;;;;;;4988399;28;20038;-84
2023/07/24 09:32:22;;;;;;;11.93;6.38;;;38.20;48.50;;;;;;4987327;28;20034;-84
2023/07/24 09:34:50;;;;;;;8.48;5.75;;;38.60;47.20;;;;;;4987274;28;20035;-83
2023/07/24 09:37:42;;;;;;;10.10;6.43;;;38.70;46.00;;;;;;4987483;28;20444;-83
2023/07/24 09:40:10;;;;;;;7.40;6.07;;;38.90;46.10;;;;;;4986192;28;20041;-84
2023/07/24 09:42:37;;;;;;;8.18;6.22;;;38.80;46.50;;;;;;4988038;28;20437;-83
2023/07/24 09:45:04;;;;;;;9.15;6.32;;;38.80;46.60;;;;;;4986903;28;20022;-83
2023/07/24 09:47:31;;;;;;;11.85;6.63;;;38.90;46.00;;;;;;4988422;28;20076;-83
2023/07/24 09:49:56;;;;;;;10.02;7.05;;;38.80;45.90;;;;;;4986987;28;20027;-84
2023/07/24 09:52:24;;;;;;;9.90;7.00;;;38.80;45.20;;;;;;4987387;28;20083;-84
2023/07/24 09:54:52;;;;;;;10.93;7.28;;;39.20;44.10;;;;;;4988480;28;20034;-82
2023/07/24 09:57:19;;;;;;;12.07;6.93;;;39.40;42.00;;;;;;4987135;28;20026;-83
2023/07/24 09:59:46;;;;;;;13.23;7.97;;;39.20;42.60;;;;;;4986804;28;20042;-84
2023/07/24 10:02:12;;;;;;;9.70;7.88;;;38.90;42.60;;;;;;4986965;28;20030;-83
2023/07/24 10:04:40;;;;;;;12.45;7.22;;;38.60;42.50;;;;;;4988395;28;20108;-83
2023/07/24 10:07:06;;;;;;;9.23;6.55;;;38.30;44.20;;;;;;4988181;28;20368;-83
2023/07/24 10:09:33;;;;;;;7.82;6.80;;;38.30;44.60;;;;;;4987286;28;20026;-83
2023/07/24 10:12:00;;;;;;;9.35;7.25;;;38.40;44.10;;;;;;4987921;28;20030;-84
2023/07/24 10:14:27;;;;;;;8.40;6.88;;;38.10;45.20;;;;;;4987931;28;20498;-84
2023/07/24 10:16:55;;;;;;;12.30;8.52;;;37.70;45.80;;;;;;4986960;28;20109;-83
2023/07/24 10:19:21;;;;;;;8.82;7.28;;;37.40;46.30;;;;;;4988616;28;20022;-83
2023/07/24 10:21:52;;;;;;;10.77;8.73;;;36.90;46.20;;;;;;4987199;28;20029;-82
2023/07/24 10:24:18;;;;;;;10.27;7.85;;;36.50;46.90;;;;;;4987315;28;20593;-84
2023/07/24 10:26:44;;;;;;;12.60;7.95;;;36.00;48.10;;;;;;4988058;28;20034;-82
2023/07/24 10:29:10;;;;;;;12.75;8.57;;;35.90;49.50;;;;;;4988251;28;20022;-83
2023/07/24 10:31:35;;;;;;;15.05;10.27;;;35.40;49.00;;;;;;4987586;28;20030;-84
2023/07/24 10:34:07;;;;;;;13.05;8.80;;;35.30;48.40;;;;;;4988037;28;20030;-83
2023/07/24 10:36:35;;;;;;;16.02;10.05;;;35.20;47.80;;;;;;4986983;28;20402;-82
2023/07/24 10:39:02;;;;;;;16.48;9.85;;;35.10;47.70;;;;;;4986619;28;20467;-83
2023/07/24 10:41:35;;;;;;;12.73;9.40;;;34.90;48.70;;;;;;4986194;28;20061;-82
2023/07/24 10:44:01;;;;;;;12.93;9.52;;;34.80;49.20;;;;;;4986164;28;20125;-83
2023/07/24 10:46:39;;;;;;;16.20;11.50;;;34.70;49.00;;;;;;4986195;28;20064;-82
2023/07/24 10:49:06;;;;;;;13.82;10.82;;;34.50;48.00;;;;;;4987632;28;20034;-82
2023/07/24 10:51:33;;;;;;;14.38;10.40;;;34.30;48.30;;;;;;4988070;28;20022;-83
2023/07/24 10:54:00;;;;;;;17.20;10.63;;;34.20;49.50;;;;;;4987471;28;20026;-83
2023/07/24 10:56:25;;;;;;;14.65;10.93;;;34.20;49.00;;;;;;4986830;28;20034;-83
2023/07/24 10:58:51;;;;;;;12.75;10.07;;;34.20;47.60;;;;;;4987662;28;20030;-83
2023/07/24 11:01:18;;;;;;;16.92;11.48;;;34.10;49.10;;;;;;4987792;28;20026;-82
2023/07/24 11:03:44;;;;;;;25.80;11.57;;;34.10;47.40;;;;;;4988073;28;20126;-83
2023/07/24 11:06:21;;;;;;;14.30;11.02;;;34.10;48.90;;;;;;4986528;28;20053;-83
2023/07/24 11:08:59;;;;;;;20.90;11.25;;;34.10;49.20;;;;;;4986592;28;20027;-83
2023/07/24 11:11:35;;;;;;;14.98;9.85;;;33.90;49.90;;;;;;4986261;28;20445;-84
2023/07/24 11:14:02;;;;;;;13.73;9.38;;;33.90;51.70;;;;;;4986401;28;20028;-84
2023/07/24 11:16:31;;;;;;;19.17;10.27;;;33.90;51.00;;;;;;4987634;28;20487;-83
2023/07/24 11:18:56;;;;;;;16.42;9.52;;;33.90;51.00;;;;;;4987866;28;20030;-82
2023/07/24 11:21:23;;;;;;;14.80;9.32;;;33.90;51.20;;;;;;4986923;28;20048;-83
2023/07/24 11:23:51;;;;;;;18.58;10.07;;;33.90;51.10;;;;;;4986459;28;20034;-83
2023/07/24 11:26:22;;;;;;;15.25;10.13;;;33.90;50.90;;;;;;4987350;28;20529;-83
2023/07/24 11:28:49;;;;;;;17.50;10.60;;;33.80;50.30;;;;;;4987639;28;20080;-84
2023/07/24 11:31:15;;;;;;;15.32;11.25;;;33.80;50.30;;;;;;4987604;28;20031;-83
2023/07/24 11:33:41;;;;;;;18.13;10.25;;;33.90;51.10;;;;;;4986518;28;20026;-82
2023/07/24 11:36:08;;;;;;;14.18;10.05;;;33.90;50.70;;;;;;4987664;28;20087;-83
2023/07/24 11:38:34;;;;;;;14.35;10.43;;;33.90;51.10;;;;;;4987679;28;20022;-82
2023/07/24 11:40:59;;;;;;;20.15;11.23;;;34.00;51.00;;;;;;5019372;28;20050;-83
2023/07/24 11:43:26;;;;;;;15.60;11.02;;;34.10;50.80;;;;;;4987136;28;20501;-82
2023/07/24 11:45:53;;;;;;;15.57;12.55;;;34.10;49.50;;;;;;4987371;28;20079;-83
2023/07/24 11:48:24;;;;;;;15.82;11.48;;;34.00;49.40;;;;;;4988078;28;20474;-81
2023/07/24 11:50:54;;;;;;;18.00;11.50;;;34.10;49.40;;;;;;5019136;28;20026;-82
2023/07/24 11:53:25;;;;;;;21.98;12.80;;;34.10;49.60;;;;;;4987057;28;20027;-83
2023/07/24 11:55:53;;;;;;;17.42;13.00;;;34.10;47.70;;;;;;4987436;28;20019;-83
2023/07/24 11:58:20;;;;;;;17.23;12.95;;;34.10;48.00;;;;;;4987514;28;20030;-82
2023/07/24 12:00:51;;;;;;;21.42;11.93;;;34.10;48.20;;;;;;4985849;28;20026;-83
2023/07/24 12:03:28;;;;;;;21.83;12.60;;;34.00;47.70;;;;;;4986623;28;20034;-84
2023/07/24 12:05:54;;;;;;;21.10;12.45;;;34.00;48.70;;;;;;4985739;28;20034;-83
2023/07/24 12:08:23;;;;;;;19.33;12.60;;;34.00;47.70;;;;;;4989193;28;20049;-82
2023/07/24 12:10:49;;;;;;;23.08;12.52;;;34.10;47.60;;;;;;5022174;28;20026;-83
2023/07/24 12:13:15;;;;;;;19.30;12.55;;;34.20;47.70;;;;;;4989049;28;20071;-83
2023/07/24 12:15:40;;;;;;;16.33;11.82;;;34.20;46.80;;;;;;5021792;28;20030;-81
2023/07/24 12:18:06;;;;;;;17.40;12.02;;;34.10;47.10;;;;;;4990026;28;20503;-82
2023/07/24 12:20:34;;;;;;;14.40;11.00;;;34.20;47.10;;;;;;4989154;28;20018;-82
2023/07/24 12:23:00;;;;;;;18.73;11.93;;;34.20;46.70;;;;;;4988516;28;20053;-82
2023/07/24 12:25:26;;;;;;;20.05;12.93;;;34.10;46.70;;;;;;4990282;28;20023;-83
2023/07/24 12:27:51;;;;;;;24.95;13.52;;;34.10;45.60;;;;;;4990394;28;20041;-82
2023/07/24 12:30:17;;;;;;;20.67;12.90;;;33.90;44.90;;;;;;4988941;28;20026;-83
2023/07/24 12:32:43;;;;;;;16.40;13.23;;;33.80;45.10;;;;;;4989206;28;20030;-83
2023/07/24 12:35:09;;;;;;;17.60;12.95;;;33.70;45.00;;;;;;5021381;28;20080;-83
2023/07/24 12:37:35;;;;;;;20.13;12.32;;;33.60;44.30;;;;;;4989745;28;20018;-83
2023/07/24 12:40:01;;;;;;;21.33;13.63;;;33.50;45.10;;;;;;4989613;28;20037;-83